CNR4 weather

Tobermory Airport
Tobermory, Ontario, Canada

Public forecast

Using degrees Celsius for public forecast. Weather courtesy of forecast.io.

Closest aviation weather report (METAR) to Tobermory Airport

Closest report is Wiarton Airport, 36.1 nm (66.9 km) SE. Retrieved 2019/10/23 07:00 UTC (35 minutes ago):

CYVV 230700Z 23014G26KT 15SM OVC032 09/05 A2965 RMK SC8 SLP043

Closest aviation forecast (TAF) to Tobermory Airport

Forecast is more than 6 hours old.

Closest forecast is Wiarton Airport, 36.1 nm (66.9 km) SE. Retrieved 2019/10/22 20:00 UTC (12 hours ago):

TAF CYVV 221943Z 2220/2223 22020G30KT P6SM BKN030 FM222100 22020G30KT P6SM OVC030 TEMPO 2221/2223 5SM -SHRA BR OVC015 RMK NXT FCST WILL BE ISSUED AT 231045Z